Time;durP1;ratioP1;P1;durP2;ratioP2;P2;SDS_P1;SDS_P2;PMS_P1;PMS_P2;Temp;Humidity;BMP_temperature;BMP_pressure;BME280_temperature;BME280_humidity;BME280_pressure;Samples;Min_cycle;Max_cycle;Signal;HPM_P1;HPM_P2
2023/06/03 00:02:10;;;;;;;1.48;1.13;;;19.00;60.20;;;;;;4207986;28;20117;-58
2023/06/03 00:04:51;;;;;;;0.77;0.77;;;18.90;60.30;;;;;;4209311;28;20577;-56
2023/06/03 00:07:32;;;;;;;2.38;1.00;;;18.90;60.50;;;;;;4208563;28;20125;-59
2023/06/03 00:10:14;;;;;;;2.63;0.82;;;18.90;60.50;;;;;;4198847;28;20074;-57
2023/06/03 00:12:55;;;;;;;2.13;0.98;;;18.90;60.50;;;;;;4192032;28;20117;-57
2023/06/03 00:15:36;;;;;;;0.98;0.90;;;18.90;60.40;;;;;;4191870;28;20052;-57
2023/06/03 00:18:17;;;;;;;1.13;0.80;;;18.90;60.20;;;;;;4202290;28;20177;-56
2023/06/03 00:20:58;;;;;;;1.15;1.00;;;18.90;60.00;;;;;;4208782;28;20519;-58
2023/06/03 00:23:39;;;;;;;1.95;1.10;;;18.90;60.40;;;;;;4208923;28;20406;-57
2023/06/03 00:26:21;;;;;;;1.65;0.95;;;18.90;60.30;;;;;;4199868;28;20063;-57
2023/06/03 00:29:08;;;;;;;1.73;0.80;;;18.90;60.00;;;;;;4175329;28;20052;-57
2023/06/03 00:31:49;;;;;;;0.80;0.80;;;18.90;60.30;;;;;;4192184;28;20055;-57
2023/06/03 00:34:30;;;;;;;0.80;0.80;;;18.90;60.40;;;;;;4191092;28;20121;-57
2023/06/03 00:37:10;;;;;;;3.20;0.83;;;18.90;60.60;;;;;;4191848;28;20110;-58
2023/06/03 00:39:51;;;;;;;0.95;0.95;;;18.90;60.50;;;;;;4208685;28;20054;-56
2023/06/03 00:42:34;;;;;;;1.17;1.08;;;18.80;60.30;;;;;;4197880;28;20094;-57
2023/06/03 00:45:15;;;;;;;1.20;1.10;;;18.80;60.40;;;;;;4192184;28;20391;-57
2023/06/03 00:47:56;;;;;;;2.33;0.93;;;18.80;60.60;;;;;;4197790;28;20074;-56
2023/06/03 00:50:39;;;;;;;;;;;18.80;60.30;;;;;;4212755;28;20170;-57
2023/06/03 00:53:20;;;;;;;1.15;0.60;;;18.80;60.50;;;;;;4210826;28;20012;-60
2023/06/03 00:56:01;;;;;;;1.00;0.98;;;18.80;61.80;;;;;;4211458;28;20047;-60
2023/06/03 00:58:44;;;;;;;1.45;0.80;;;18.80;60.80;;;;;;4197974;28;20070;-60
2023/06/03 01:01:25;;;;;;;1.70;1.00;;;18.70;60.00;;;;;;4193816;28;20064;-59
2023/06/03 01:04:06;;;;;;;0.90;0.90;;;18.70;59.80;;;;;;4194002;28;20169;-59
2023/06/03 01:07:06;;;;;;;1.75;0.82;;;18.70;59.70;;;;;;4204764;28;20497;-60
2023/06/03 01:09:56;;;;;;;3.40;0.88;;;18.70;59.10;;;;;;4210931;28;20069;-59
2023/06/03 01:12:45;;;;;;;3.30;0.85;;;18.70;59.50;;;;;;4210347;28;20498;-59
2023/06/03 01:15:31;;;;;;;2.72;1.40;;;18.70;59.40;;;;;;4194346;28;20052;-59
2023/06/03 01:18:16;;;;;;;2.55;1.10;;;18.70;59.80;;;;;;4176930;28;20052;-60
2023/06/03 01:20:59;;;;;;;1.42;0.95;;;18.70;59.90;;;;;;4177740;28;20171;-60
2023/06/03 01:23:46;;;;;;;1.05;0.95;;;18.70;60.80;;;;;;4176505;28;20056;-59
2023/06/03 01:26:28;;;;;;;2.67;0.85;;;18.70;59.70;;;;;;4179629;28;20071;-59
2023/06/03 01:29:09;;;;;;;;;;;18.70;60.70;;;;;;4181672;28;20055;-59
2023/06/03 01:31:51;;;;;;;1.13;1.03;;;18.70;60.20;;;;;;4193714;28;20382;-59
2023/06/03 01:34:33;;;;;;;1.00;1.00;;;18.60;61.70;;;;;;4194460;28;20063;-59
2023/06/03 01:37:15;;;;;;;2.10;1.20;;;18.60;61.00;;;;;;4208992;28;20050;-56
2023/06/03 01:39:57;;;;;;;2.00;1.13;;;18.60;60.80;;;;;;4210044;28;20375;-57
2023/06/03 01:42:39;;;;;;;1.52;1.13;;;18.60;61.60;;;;;;4211014;28;20710;-60
2023/06/03 01:45:20;;;;;;;4.03;1.02;;;18.60;60.80;;;;;;4209139;28;20548;-59
2023/06/03 01:48:02;;;;;;;3.97;1.42;;;18.60;60.90;;;;;;4192772;28;20051;-59
2023/06/03 01:50:43;;;;;;;4.45;1.23;;;18.60;61.00;;;;;;4193985;28;20055;-59
2023/06/03 01:53:27;;;;;;;1.77;1.35;;;18.60;61.20;;;;;;4192800;28;20064;-59
2023/06/03 01:56:09;;;;;;;2.47;1.20;;;18.60;61.90;;;;;;4195212;28;20051;-59
2023/06/03 01:58:51;;;;;;;2.70;1.10;;;18.50;60.90;;;;;;4193954;28;20047;-59
2023/06/03 02:01:31;;;;;;;0.85;0.82;;;18.50;60.90;;;;;;4192373;28;20102;-59
2023/06/03 02:04:12;;;;;;;1.58;1.02;;;18.60;61.10;;;;;;4197023;28;20059;-59
2023/06/03 02:06:55;;;;;;;1.48;1.10;;;18.50;61.20;;;;;;4210802;28;20066;-59
2023/06/03 02:09:37;;;;;;;5.00;1.00;;;18.60;61.30;;;;;;4185403;28;20052;-58
2023/06/03 02:12:19;;;;;;;1.95;1.08;;;18.50;61.00;;;;;;4177138;28;20083;-60
2023/06/03 02:15:00;;;;;;;2.70;1.10;;;18.50;61.10;;;;;;4187970;28;20050;-60
2023/06/03 02:17:41;;;;;;;1.23;1.13;;;18.50;61.20;;;;;;4193047;28;20098;-60
2023/06/03 02:20:23;;;;;;;2.40;1.13;;;18.50;61.30;;;;;;4193009;28;20387;-60
2023/06/03 02:23:04;;;;;;;2.80;1.30;;;18.50;61.40;;;;;;4192480;28;20125;-60
2023/06/03 02:25:45;;;;;;;1.10;1.10;;;18.50;61.20;;;;;;4198593;28;20129;-60
2023/06/03 02:28:29;;;;;;;;;;;18.40;61.10;;;;;;4194288;28;20051;-60
2023/06/03 02:31:10;;;;;;;1.42;1.13;;;18.40;61.50;;;;;;4192573;28;19943;-60
2023/06/03 02:33:51;;;;;;;2.83;1.00;;;18.40;62.60;;;;;;4192838;28;20478;-60
2023/06/03 02:36:32;;;;;;;1.20;1.10;;;18.40;62.10;;;;;;4181150;28;20059;-59
2023/06/03 02:39:14;;;;;;;1.50;1.02;;;18.40;61.80;;;;;;4193434;28;20510;-60
2023/06/03 02:41:55;;;;;;;1.92;1.15;;;18.40;61.70;;;;;;4192362;28;20056;-59
2023/06/03 02:44:38;;;;;;;2.22;0.93;;;18.40;61.50;;;;;;4176065;28;20696;-59
2023/06/03 02:47:19;;;;;;;2.72;1.13;;;18.40;61.40;;;;;;4175943;28;20051;-59
2023/06/03 02:50:00;;;;;;;3.83;1.00;;;18.40;61.60;;;;;;4176833;28;20110;-59
2023/06/03 02:52:43;;;;;;;2.78;1.10;;;18.40;61.70;;;;;;4179140;28;20171;-59
2023/06/03 02:55:27;;;;;;;1.02;1.02;;;18.30;61.50;;;;;;4192079;28;20059;-57
2023/06/03 02:58:08;;;;;;;1.95;1.10;;;18.40;61.50;;;;;;4193276;28;20052;-58
2023/06/03 03:00:50;;;;;;;4.35;1.50;;;18.30;61.70;;;;;;4192509;28;20055;-58
2023/06/03 03:03:35;;;;;;;1.33;1.10;;;18.30;61.70;;;;;;4192868;28;20067;-57
2023/06/03 03:06:19;;;;;;;4.13;1.67;;;18.30;61.60;;;;;;4191974;28;20509;-58
2023/06/03 03:09:00;;;;;;;1.08;1.05;;;18.30;61.50;;;;;;4193285;28;20179;-57
2023/06/03 03:11:49;;;;;;;2.13;0.90;;;18.30;61.20;;;;;;4200096;28;20090;-57
2023/06/03 03:14:30;;;;;;;1.90;0.88;;;18.30;61.00;;;;;;4208612;28;20182;-59
2023/06/03 03:17:13;;;;;;;1.08;1.08;;;18.20;60.80;;;;;;4196662;28;20132;-58
2023/06/03 03:19:54;;;;;;;1.30;1.20;;;18.20;60.60;;;;;;4208475;28;20055;-57
2023/06/03 03:22:40;;;;;;;2.60;1.10;;;18.30;60.30;;;;;;4208881;28;20157;-57
2023/06/03 03:25:23;;;;;;;1.48;1.20;;;18.20;60.40;;;;;;4207164;28;20498;-57
2023/06/03 03:28:05;;;;;;;1.60;1.05;;;18.20;60.70;;;;;;4190685;28;20486;-57
2023/06/03 03:30:49;;;;;;;3.13;1.50;;;18.20;60.70;;;;;;4190630;28;20044;-57
2023/06/03 03:33:32;;;;;;;2.67;0.90;;;18.20;59.80;;;;;;4191443;28;20060;-57
2023/06/03 03:36:20;;;;;;;2.90;1.17;;;18.20;60.60;;;;;;4191417;28;20125;-57
2023/06/03 03:39:03;;;;;;;3.40;1.10;;;18.20;60.60;;;;;;4175204;28;20060;-58
2023/06/03 03:41:49;;;;;;;1.80;1.25;;;18.10;60.60;;;;;;4192201;28;20082;-57
2023/06/03 03:44:31;;;;;;;2.50;1.15;;;18.20;60.60;;;;;;4192649;28;20560;-57
2023/06/03 03:47:21;;;;;;;1.23;0.93;;;18.20;60.70;;;;;;4191520;28;20193;-57
2023/06/03 03:50:08;;;;;;;0.80;0.80;;;18.20;61.70;;;;;;4190919;28;20133;-57
2023/06/03 03:52:49;;;;;;;1.80;1.42;;;18.20;60.90;;;;;;4191283;28;20178;-56
2023/06/03 03:55:31;;;;;;;1.17;1.13;;;18.20;61.10;;;;;;4191252;28;20059;-55
2023/06/03 03:58:26;;;;;;;2.58;1.42;;;18.20;61.20;;;;;;4179409;28;20087;-57
2023/06/03 04:01:12;;;;;;;3.42;1.08;;;18.20;60.90;;;;;;4191114;28;20503;-58
2023/06/03 04:03:55;;;;;;;2.13;1.40;;;18.20;61.30;;;;;;4189473;28;20101;-58
2023/06/03 04:06:39;;;;;;;;;;;18.20;61.40;;;;;;4178616;28;20047;-58
2023/06/03 04:09:21;;;;;;;2.42;1.10;;;18.10;61.50;;;;;;4189781;28;20027;-57
2023/06/03 04:12:06;;;;;;;2.92;1.17;;;18.10;62.40;;;;;;4199112;28;20051;-58
2023/06/03 04:14:51;;;;;;;1.60;1.17;;;18.10;61.80;;;;;;4179648;28;20054;-57
2023/06/03 04:17:37;;;;;;;3.85;1.55;;;18.10;61.70;;;;;;4161731;28;20867;-58
2023/06/03 04:20:38;;;;;;;2.67;1.65;;;18.10;61.50;;;;;;4203226;28;20089;-58
2023/06/03 04:23:22;;;;;;;1.45;1.35;;;18.10;61.10;;;;;;4205604;28;20095;-57
2023/06/03 04:26:03;;;;;;;1.27;1.20;;;18.10;61.50;;;;;;4194740;28;20067;-58
2023/06/03 04:28:44;;;;;;;1.42;1.33;;;18.10;61.50;;;;;;4194781;28;20059;-58
2023/06/03 04:31:27;;;;;;;1.85;1.55;;;18.10;61.50;;;;;;4170161;28;20109;-60
2023/06/03 04:34:08;;;;;;;2.47;1.10;;;18.10;62.40;;;;;;4175695;28;20060;-51
2023/06/03 04:36:50;;;;;;;;;;;18.10;61.40;;;;;;4175119;28;20043;-56
2023/06/03 04:39:33;;;;;;;3.20;1.30;;;18.20;61.50;;;;;;4167568;28;19970;-56
2023/06/03 04:42:15;;;;;;;1.40;1.20;;;18.20;62.40;;;;;;4190644;28;20093;-56
2023/06/03 04:44:58;;;;;;;3.53;1.10;;;18.20;61.40;;;;;;4182217;28;20063;-57
2023/06/03 04:47:42;;;;;;;4.25;1.38;;;18.20;61.10;;;;;;4178837;28;20047;-56
2023/06/03 04:50:27;;;;;;;1.20;1.20;;;18.30;61.20;;;;;;4179203;28;20162;-57
2023/06/03 04:53:10;;;;;;;3.67;1.23;;;18.20;60.90;;;;;;4190777;28;20062;-57
2023/06/03 04:55:53;;;;;;;1.25;1.15;;;18.30;60.50;;;;;;4190573;28;20055;-56
2023/06/03 04:58:36;;;;;;;4.20;1.67;;;18.30;60.50;;;;;;4191117;28;20094;-57
2023/06/03 05:01:21;;;;;;;4.30;1.30;;;18.30;61.60;;;;;;4194383;28;20557;-57
2023/06/03 05:04:02;;;;;;;2.28;1.67;;;18.30;60.10;;;;;;4190479;28;20182;-57
2023/06/03 05:06:44;;;;;;;3.15;1.60;;;18.30;60.00;;;;;;4190124;28;20050;-57
2023/06/03 05:09:26;;;;;;;1.38;1.23;;;18.30;59.70;;;;;;4190276;28;20051;-57
2023/06/03 05:12:10;;;;;;;1.27;1.17;;;18.30;60.20;;;;;;4175286;28;20052;-57
2023/06/03 05:14:51;;;;;;;1.70;1.60;;;18.30;59.20;;;;;;4174071;28;20071;-57
2023/06/03 05:17:32;;;;;;;2.13;1.55;;;18.40;59.40;;;;;;4185759;28;20047;-57
2023/06/03 05:20:13;;;;;;;2.80;1.38;;;18.30;59.60;;;;;;4191349;28;20055;-56
2023/06/03 05:22:56;;;;;;;5.47;1.60;;;18.50;60.20;;;;;;4190290;28;20510;-57
2023/06/03 05:25:37;;;;;;;1.98;1.48;;;18.60;60.00;;;;;;4191726;28;20114;-58
2023/06/03 05:28:19;;;;;;;4.82;1.30;;;18.70;59.80;;;;;;4193814;28;20434;-59
2023/06/03 05:31:00;;;;;;;3.35;1.17;;;18.80;59.40;;;;;;4207220;28;20051;-60
2023/06/03 05:33:44;;;;;;;4.28;1.30;;;18.90;59.20;;;;;;4195379;28;20553;-60
2023/06/03 05:36:29;;;;;;;3.17;1.52;;;19.00;59.00;;;;;;4192732;28;20498;-60
2023/06/03 05:39:13;;;;;;;0.98;0.98;;;19.10;58.60;;;;;;4191792;28;20141;-60
2023/06/03 05:41:54;;;;;;;1.30;1.20;;;19.10;58.10;;;;;;4198873;28;20051;-56
2023/06/03 05:44:39;;;;;;;2.70;1.30;;;19.10;58.50;;;;;;4210057;28;20182;-55
2023/06/03 05:47:21;;;;;;;1.38;1.27;;;19.10;58.40;;;;;;4191902;28;20400;-55
2023/06/03 05:50:02;;;;;;;2.88;1.30;;;19.10;57.90;;;;;;4210476;27;20531;-56
2023/06/03 05:52:43;;;;;;;1.55;1.45;;;19.10;57.10;;;;;;4210146;28;20051;-56
2023/06/03 05:55:25;;;;;;;2.70;1.40;;;19.10;57.50;;;;;;4209788;28;20058;-56
2023/06/03 05:58:07;;;;;;;2.25;1.23;;;19.00;57.90;;;;;;4209006;28;20039;-56
2023/06/03 06:00:50;;;;;;;1.67;1.55;;;19.00;57.80;;;;;;4210765;28;20055;-56
2023/06/03 06:03:31;;;;;;;5.22;1.60;;;19.00;58.00;;;;;;4209488;28;20153;-57
2023/06/03 06:06:12;;;;;;;1.20;1.20;;;18.90;57.40;;;;;;4209734;28;20459;-56
2023/06/03 06:08:52;;;;;;;1.70;1.60;;;18.90;57.30;;;;;;4204137;28;20210;-56
2023/06/03 06:11:34;;;;;;;1.55;1.42;;;18.90;57.40;;;;;;4193192;28;20051;-54
2023/06/03 06:14:15;;;;;;;1.40;1.30;;;18.90;58.10;;;;;;4193097;28;20051;-56
2023/06/03 06:16:58;;;;;;;1.55;1.45;;;18.90;58.00;;;;;;4192766;28;20048;-56
2023/06/03 06:19:39;;;;;;;2.65;1.40;;;18.90;57.80;;;;;;4205119;28;20051;-56
2023/06/03 06:22:20;;;;;;;1.48;1.38;;;19.00;57.80;;;;;;4208820;28;20054;-56
2023/06/03 06:25:03;;;;;;;2.15;1.27;;;19.00;57.30;;;;;;4194178;28;20392;-56
2023/06/03 06:27:45;;;;;;;2.28;1.42;;;19.00;58.00;;;;;;4192585;28;20056;-56
2023/06/03 06:30:28;;;;;;;1.30;1.20;;;19.10;57.50;;;;;;4176011;28;20056;-56
2023/06/03 06:33:12;;;;;;;2.55;1.40;;;19.10;56.70;;;;;;4176175;28;20056;-56
2023/06/03 06:35:54;;;;;;;1.60;1.33;;;19.20;56.40;;;;;;4164649;28;20591;-55
2023/06/03 06:38:36;;;;;;;1.23;1.10;;;19.20;57.60;;;;;;4177340;28;20122;-56
2023/06/03 06:41:17;;;;;;;2.00;1.20;;;19.20;57.30;;;;;;4184643;28;20047;-55
2023/06/03 06:43:58;;;;;;;2.08;1.60;;;19.30;57.20;;;;;;4193727;28;20093;-57
2023/06/03 06:46:40;;;;;;;1.30;1.20;;;19.40;57.40;;;;;;4192310;28;20056;-56
2023/06/03 06:49:22;;;;;;;1.88;1.23;;;19.40;56.50;;;;;;4192108;28;20074;-56
2023/06/03 06:52:03;;;;;;;1.23;1.13;;;19.50;56.00;;;;;;4192288;28;20130;-56
2023/06/03 06:54:44;;;;;;;1.40;1.30;;;19.60;57.20;;;;;;4191467;28;20141;-58
2023/06/03 06:57:28;;;;;;;1.77;1.20;;;19.60;56.60;;;;;;4193798;28;20063;-56
2023/06/03 07:00:11;;;;;;;2.25;1.30;;;19.70;56.30;;;;;;4188211;28;20101;-58
2023/06/03 07:02:52;;;;;;;0.95;0.95;;;19.70;56.50;;;;;;4192044;28;20101;-58
2023/06/03 07:05:34;;;;;;;2.42;1.10;;;19.80;56.40;;;;;;4192575;28;20070;-57
2023/06/03 07:08:16;;;;;;;2.45;1.30;;;19.80;56.00;;;;;;4176000;28;20251;-57
2023/06/03 07:10:59;;;;;;;3.20;1.50;;;19.90;55.40;;;;;;4175013;28;20059;-58
2023/06/03 07:13:44;;;;;;;1.42;1.20;;;19.90;55.10;;;;;;4179194;28;20059;-56
2023/06/03 07:16:28;;;;;;;4.32;1.20;;;20.00;54.60;;;;;;4180008;28;20076;-57
2023/06/03 07:19:09;;;;;;;1.27;1.17;;;20.00;55.10;;;;;;4183738;28;20505;-57
2023/06/03 07:21:57;;;;;;;1.13;1.02;;;20.00;54.80;;;;;;4175244;28;20122;-56
2023/06/03 07:24:38;;;;;;;3.08;1.13;;;20.10;53.80;;;;;;4174806;28;20065;-55
2023/06/03 07:27:27;;;;;;;1.05;1.02;;;20.10;54.40;;;;;;4206717;28;20062;-56
2023/06/03 07:30:16;;;;;;;1.30;1.20;;;20.10;54.70;;;;;;4207413;28;20407;-57
2023/06/03 07:33:00;;;;;;;1.67;1.20;;;20.10;53.60;;;;;;4208871;28;20410;-56
2023/06/03 07:35:41;;;;;;;1.80;1.30;;;20.10;54.00;;;;;;4191028;28;20055;-57
2023/06/03 07:38:55;;;;;;;2.03;0.95;;;20.20;53.80;;;;;;4192337;28;20129;-56
2023/06/03 07:41:41;;;;;;;0.95;0.80;;;20.20;52.50;;;;;;4190913;28;20051;-57
2023/06/03 07:44:53;;;;;;;1.05;0.80;;;20.10;52.30;;;;;;4200966;28;20055;-56
2023/06/03 07:47:35;;;;;;;3.53;1.00;;;20.20;53.20;;;;;;4208841;28;20121;-56
2023/06/03 07:50:25;;;;;;;2.63;1.10;;;20.20;52.90;;;;;;4204213;28;20055;-57
2023/06/03 07:53:06;;;;;;;0.82;0.82;;;20.20;52.60;;;;;;4191990;28;20412;-57
2023/06/03 07:55:49;;;;;;;1.70;0.80;;;20.20;52.70;;;;;;4207942;28;20051;-56
2023/06/03 07:58:30;;;;;;;1.23;0.95;;;20.20;53.10;;;;;;4175044;28;20048;-57
2023/06/03 08:01:11;;;;;;;2.35;1.17;;;20.20;53.00;;;;;;4175608;28;20056;-57
2023/06/03 08:03:53;;;;;;;1.02;0.73;;;20.20;53.30;;;;;;4177666;28;20059;-61
2023/06/03 08:06:36;;;;;;;1.05;1.05;;;20.20;53.10;;;;;;4172111;28;20400;-56
2023/06/03 08:09:24;;;;;;;0.85;0.85;;;20.10;52.80;;;;;;4179812;28;20491;-61
2023/06/03 08:12:08;;;;;;;0.70;0.70;;;20.10;51.70;;;;;;4175854;28;20055;-57
2023/06/03 08:14:50;;;;;;;0.80;0.75;;;20.10;52.50;;;;;;4174985;28;20048;-56
2023/06/03 08:17:40;;;;;;;1.70;0.85;;;20.10;53.00;;;;;;4178648;28;20646;-57
2023/06/03 08:20:25;;;;;;;2.85;1.30;;;20.00;52.20;;;;;;4189228;28;20061;-57
2023/06/03 08:23:07;;;;;;;2.60;0.70;;;19.90;53.00;;;;;;4182628;28;20403;-57
2023/06/03 08:25:48;;;;;;;;;;;19.90;52.30;;;;;;4177304;28;20056;-58
2023/06/03 08:28:30;;;;;;;5.95;0.90;;;19.90;53.20;;;;;;4177767;28;19931;-58
2023/06/03 08:31:12;;;;;;;1.75;1.08;;;19.90;53.40;;;;;;4178162;28;20091;-58
2023/06/03 08:33:53;;;;;;;1.52;0.70;;;19.80;52.40;;;;;;4179404;28;20135;-57
2023/06/03 08:36:36;;;;;;;3.22;0.90;;;19.80;52.90;;;;;;4174683;28;20086;-58
2023/06/03 08:39:18;;;;;;;1.38;0.80;;;19.80;52.90;;;;;;4177910;28;20187;-58
2023/06/03 08:42:06;;;;;;;3.25;0.80;;;19.80;52.40;;;;;;4173867;28;20372;-57
2023/06/03 08:44:59;;;;;;;0.80;0.80;;;19.80;51.90;;;;;;4178005;28;20052;-58
2023/06/03 08:48:05;;;;;;;1.23;0.90;;;19.80;51.70;;;;;;4179179;28;20055;-58
2023/06/03 08:50:50;;;;;;;2.05;1.08;;;19.80;51.30;;;;;;4187245;28;20055;-58
2023/06/03 08:53:39;;;;;;;1.00;0.77;;;19.80;50.90;;;;;;4186508;28;20281;-61
2023/06/03 08:56:21;;;;;;;2.45;0.93;;;19.80;51.10;;;;;;4176003;28;20154;-61
2023/06/03 08:59:04;;;;;;;2.63;0.90;;;19.80;52.70;;;;;;4180872;28;20059;-60
2023/06/03 09:01:51;;;;;;;3.47;1.05;;;19.80;51.80;;;;;;4187890;28;20055;-61
2023/06/03 09:04:33;;;;;;;1.38;0.85;;;19.80;51.60;;;;;;4174242;28;20491;-61
2023/06/03 09:07:14;;;;;;;1.63;1.20;;;19.80;50.50;;;;;;4171676;28;20114;-61
2023/06/03 09:09:57;;;;;;;1.67;0.80;;;19.90;50.40;;;;;;4179774;28;20056;-61
2023/06/03 09:12:39;;;;;;;0.75;0.73;;;19.90;49.70;;;;;;4185899;28;20055;-61
2023/06/03 09:15:20;;;;;;;1.80;0.75;;;19.90;51.20;;;;;;4190226;28;20202;-61
2023/06/03 09:18:02;;;;;;;;;;;20.00;51.90;;;;;;4179478;28;20506;-61
2023/06/03 09:20:43;;;;;;;2.22;1.20;;;20.00;51.90;;;;;;4190816;28;20498;-61
2023/06/03 09:23:26;;;;;;;1.05;0.98;;;20.00;50.10;;;;;;4183207;28;20091;-61
2023/06/03 09:26:08;;;;;;;1.02;0.95;;;20.00;49.80;;;;;;4184204;28;20512;-61
2023/06/03 09:28:49;;;;;;;2.70;0.75;;;20.10;49.90;;;;;;4191433;28;20129;-61
2023/06/03 09:31:31;;;;;;;0.90;0.90;;;20.10;51.40;;;;;;4191130;28;20101;-61
2023/06/03 09:34:14;;;;;;;2.83;1.05;;;20.10;50.70;;;;;;4191612;28;20156;-61
2023/06/03 09:36:55;;;;;;;1.00;1.00;;;20.10;49.90;;;;;;4186658;28;20155;-61
2023/06/03 09:39:37;;;;;;;1.30;1.20;;;20.20;50.60;;;;;;4176388;28;20499;-61
2023/06/03 09:42:18;;;;;;;4.30;0.80;;;20.20;49.60;;;;;;4187638;28;20080;-60
2023/06/03 09:44:59;;;;;;;2.58;1.25;;;20.20;49.40;;;;;;4186869;28;20186;-62
2023/06/03 09:47:40;;;;;;;1.42;1.00;;;20.30;49.50;;;;;;4175753;28;20060;-61
2023/06/03 09:50:24;;;;;;;2.22;1.02;;;20.30;49.80;;;;;;4176628;28;21011;-61
2023/06/03 09:53:18;;;;;;;1.40;0.90;;;20.30;49.00;;;;;;4178000;28;20055;-61
2023/06/03 09:56:20;;;;;;;1.58;1.20;;;20.30;48.20;;;;;;4175801;28;20464;-61
2023/06/03 09:59:14;;;;;;;1.63;0.88;;;20.30;49.40;;;;;;4189011;28;20060;-60
2023/06/03 10:01:55;;;;;;;3.42;1.08;;;20.40;49.50;;;;;;4175395;28;20055;-61
2023/06/03 10:04:39;;;;;;;0.80;0.70;;;20.40;50.00;;;;;;4184927;28;20048;-61
2023/06/03 10:07:21;;;;;;;1.08;1.08;;;20.40;50.50;;;;;;4170277;28;20059;-58
2023/06/03 10:10:08;;;;;;;2.28;1.10;;;20.50;49.90;;;;;;4180053;28;20071;-58
2023/06/03 10:12:50;;;;;;;1.30;1.20;;;20.50;49.50;;;;;;4191536;28;20051;-57
2023/06/03 10:15:36;;;;;;;1.45;0.88;;;20.50;49.60;;;;;;4177825;28;20187;-57
2023/06/03 10:18:17;;;;;;;1.27;1.17;;;20.50;49.70;;;;;;4189936;28;20133;-61
2023/06/03 10:20:58;;;;;;;1.13;1.02;;;20.50;49.40;;;;;;4185541;28;20168;-61
2023/06/03 10:23:42;;;;;;;0.88;0.88;;;20.60;49.80;;;;;;4181285;28;20053;-61
2023/06/03 10:26:24;;;;;;;1.13;0.77;;;20.60;49.50;;;;;;4183293;28;20063;-60
2023/06/03 10:29:06;;;;;;;1.95;0.75;;;20.70;48.90;;;;;;4176312;28;20068;-61
2023/06/03 10:31:49;;;;;;;2.03;1.20;;;20.60;48.70;;;;;;4188498;28;20055;-61
2023/06/03 10:34:31;;;;;;;1.80;1.30;;;20.70;49.60;;;;;;4191466;28;20443;-61
2023/06/03 10:37:15;;;;;;;1.40;1.27;;;20.70;48.80;;;;;;4190640;28;20063;-61
2023/06/03 10:40:01;;;;;;;1.38;1.00;;;20.70;48.60;;;;;;4186987;28;20071;-61
2023/06/03 10:42:43;;;;;;;2.92;1.23;;;20.70;48.60;;;;;;4177646;28;20056;-61
2023/06/03 10:45:25;;;;;;;1.27;0.80;;;20.80;49.20;;;;;;4183199;28;20139;-61
2023/06/03 10:48:10;;;;;;;2.70;1.20;;;20.80;49.00;;;;;;4174413;28;20055;-61
2023/06/03 10:51:02;;;;;;;5.97;2.70;;;20.80;48.90;;;;;;4173388;28;20068;-58
2023/06/03 10:53:56;;;;;;;1.05;0.80;;;20.80;48.60;;;;;;4176053;28;20175;-58
2023/06/03 10:56:47;;;;;;;2.33;1.35;;;20.80;48.10;;;;;;4190086;28;20050;-58
2023/06/03 10:59:39;;;;;;;2.55;1.00;;;20.80;48.10;;;;;;4173842;28;20051;-58
2023/06/03 11:02:20;;;;;;;0.93;0.85;;;20.90;48.10;;;;;;4176410;28;20194;-59
2023/06/03 11:05:22;;;;;;;0.98;0.98;;;20.90;48.20;;;;;;4174540;28;20052;-58
2023/06/03 11:08:04;;;;;;;2.40;1.10;;;20.90;47.50;;;;;;4184699;28;20132;-61
2023/06/03 11:10:45;;;;;;;0.85;0.85;;;20.80;48.20;;;;;;4182918;28;20055;-61
2023/06/03 11:13:45;;;;;;;1.00;0.90;;;20.90;47.60;;;;;;4186166;28;20063;-61
2023/06/03 11:16:26;;;;;;;0.90;0.90;;;20.90;47.10;;;;;;4179977;28;20106;-61
2023/06/03 11:19:28;;;;;;;1.30;1.00;;;20.90;47.00;;;;;;4182369;28;20056;-61
2023/06/03 11:22:10;;;;;;;2.90;1.50;;;20.90;46.60;;;;;;4173109;28;20187;-60
2023/06/03 11:24:51;;;;;;;3.60;1.20;;;20.90;47.00;;;;;;4177359;28;20067;-61
2023/06/03 11:27:32;;;;;;;1.77;1.23;;;20.90;46.70;;;;;;4185556;28;20060;-61
2023/06/03 11:30:16;;;;;;;2.28;1.38;;;20.90;47.20;;;;;;4176766;28;20052;-58
2023/06/03 11:33:09;;;;;;;0.80;0.80;;;21.00;47.90;;;;;;4183611;28;20052;-58
2023/06/03 11:35:50;;;;;;;0.80;0.80;;;21.00;47.50;;;;;;4171954;28;20059;-57
2023/06/03 11:38:59;;;;;;;2.15;0.90;;;21.00;47.60;;;;;;4179297;28;20063;-61
2023/06/03 11:42:00;;;;;;;0.80;0.80;;;21.00;47.50;;;;;;4180459;28;20047;-62
2023/06/03 11:44:42;;;;;;;1.38;1.30;;;21.00;46.30;;;;;;4178239;28;20056;-61
2023/06/03 11:47:25;;;;;;;1.10;0.80;;;21.10;47.40;;;;;;4177121;28;20903;-58
2023/06/03 11:50:07;;;;;;;2.70;0.90;;;21.00;46.70;;;;;;4160802;28;20040;-58
2023/06/03 11:52:48;;;;;;;1.30;0.90;;;21.00;46.80;;;;;;4175221;28;20052;-59
2023/06/03 11:55:35;;;;;;;3.50;1.02;;;21.00;47.70;;;;;;4178584;28;20063;-60
2023/06/03 11:58:22;;;;;;;1.52;0.88;;;21.10;46.10;;;;;;4181444;28;20060;-60
2023/06/03 12:01:07;;;;;;;1.85;1.02;;;21.10;45.80;;;;;;4184687;28;20055;-58
2023/06/03 12:03:59;;;;;;;0.90;0.90;;;21.10;47.00;;;;;;4183228;28;20060;-60
2023/06/03 12:06:40;;;;;;;;;;;21.10;46.00;;;;;;4180506;28;20110;-59
2023/06/03 12:09:23;;;;;;;1.10;1.00;;;21.10;47.10;;;;;;4183916;28;20298;-60
2023/06/03 12:12:07;;;;;;;3.67;0.98;;;21.10;46.80;;;;;;4176037;28;20063;-57
2023/06/03 12:14:48;;;;;;;1.25;0.77;;;21.20;47.20;;;;;;4177173;28;20082;-57
2023/06/03 12:17:29;;;;;;;0.85;0.85;;;21.20;47.80;;;;;;4173043;28;20138;-57
2023/06/03 12:20:23;;;;;;;1.70;1.02;;;21.20;47.10;;;;;;4180718;28;20059;-60
2023/06/03 12:23:06;;;;;;;1.95;1.02;;;21.20;46.80;;;;;;4182344;28;20139;-59
2023/06/03 12:25:56;;;;;;;3.17;1.08;;;21.20;47.30;;;;;;4178626;28;20071;-60
2023/06/03 12:28:37;;;;;;;2.75;0.95;;;21.30;47.10;;;;;;4178452;28;20078;-61
2023/06/03 12:31:20;;;;;;;2.47;0.90;;;21.20;46.80;;;;;;4183832;28;20999;-63
2023/06/03 12:34:01;;;;;;;1.10;1.00;;;21.20;46.80;;;;;;4181929;28;20074;-59
2023/06/03 12:36:48;;;;;;;3.50;1.23;;;21.20;45.90;;;;;;4188272;28;20051;-56
2023/06/03 12:39:44;;;;;;;1.95;0.80;;;21.30;46.40;;;;;;4201807;28;20525;-55
2023/06/03 12:42:36;;;;;;;0.98;0.80;;;21.30;47.10;;;;;;4205067;28;20059;-56
2023/06/03 12:45:24;;;;;;;1.27;0.88;;;21.30;46.70;;;;;;4209800;28;20502;-57
2023/06/03 12:48:05;;;;;;;1.88;0.90;;;21.30;46.90;;;;;;4211007;28;20059;-61
2023/06/03 12:50:46;;;;;;;2.92;1.10;;;21.30;46.90;;;;;;4211164;28;20403;-62
2023/06/03 12:53:32;;;;;;;2.00;0.70;;;21.30;46.90;;;;;;4209177;28;20059;-62
2023/06/03 12:56:13;;;;;;;0.93;0.90;;;21.40;46.90;;;;;;4211043;28;20056;-61
2023/06/03 12:58:55;;;;;;;1.42;1.00;;;21.40;47.00;;;;;;4211209;28;20067;-61
2023/06/03 13:01:36;;;;;;;3.45;1.10;;;21.40;47.10;;;;;;4210724;27;20132;-57
2023/06/03 13:04:17;;;;;;;1.65;0.90;;;21.30;46.90;;;;;;4210890;28;20058;-61
2023/06/03 13:06:58;;;;;;;2.30;0.90;;;21.40;47.70;;;;;;4209447;28;20509;-56
2023/06/03 13:09:40;;;;;;;3.40;1.20;;;21.40;47.00;;;;;;4210862;28;20055;-56
2023/06/03 13:12:21;;;;;;;2.10;1.10;;;21.40;46.90;;;;;;4210086;28;20403;-61
2023/06/03 13:15:02;;;;;;;2.15;0.93;;;21.40;46.90;;;;;;4165453;28;20052;-61
2023/06/03 13:17:45;;;;;;;4.68;1.15;;;21.40;47.10;;;;;;4178022;28;20195;-61
2023/06/03 13:20:25;;;;;;;1.80;1.10;;;21.40;46.90;;;;;;4177846;28;20064;-61
2023/06/03 13:23:06;;;;;;;2.35;1.08;;;21.40;46.90;;;;;;4187192;28;20408;-61
2023/06/03 13:25:49;;;;;;;1.77;1.00;;;21.40;46.90;;;;;;4194439;28;20047;-62
2023/06/03 13:28:30;;;;;;;1.65;1.00;;;21.40;47.00;;;;;;4194010;28;20059;-61
2023/06/03 13:31:11;;;;;;;6.20;1.15;;;21.40;47.00;;;;;;4193305;28;20047;-61
2023/06/03 13:33:52;;;;;;;1.90;1.10;;;21.40;47.10;;;;;;4194850;28;20063;-61
2023/06/03 13:36:33;;;;;;;1.27;1.00;;;21.50;47.00;;;;;;4194547;28;20618;-58
2023/06/03 13:39:17;;;;;;;0.75;0.75;;;21.40;46.90;;;;;;4193937;28;20519;-57
2023/06/03 13:42:00;;;;;;;1.60;0.98;;;21.50;47.00;;;;;;4208452;28;20181;-57
2023/06/03 13:44:41;;;;;;;1.25;1.15;;;21.50;47.00;;;;;;4210688;28;20117;-61
2023/06/03 13:47:22;;;;;;;;;;;21.50;47.00;;;;;;4211091;28;20182;-57
2023/06/03 13:50:04;;;;;;;2.58;0.88;;;21.50;47.00;;;;;;4202959;28;20363;-57
2023/06/03 13:52:45;;;;;;;0.98;0.90;;;21.50;46.80;;;;;;4209251;28;20158;-57
2023/06/03 13:55:26;;;;;;;2.10;0.90;;;21.50;46.60;;;;;;4210327;28;20156;-57
2023/06/03 13:58:12;;;;;;;0.80;0.80;;;21.50;47.00;;;;;;4208933;28;20060;-57
2023/06/03 14:00:52;;;;;;;1.65;1.00;;;21.50;47.00;;;;;;4210314;28;20082;-57
2023/06/03 14:03:33;;;;;;;2.08;0.88;;;21.50;47.00;;;;;;4210095;28;20073;-56
2023/06/03 14:06:14;;;;;;;2.65;0.90;;;21.50;47.00;;;;;;4209378;28;20042;-57
2023/06/03 14:08:56;;;;;;;0.80;0.73;;;21.50;47.00;;;;;;4210357;28;20047;-56
2023/06/03 14:11:37;;;;;;;;;;;21.60;46.80;;;;;;4210888;28;20058;-61
2023/06/03 14:14:20;;;;;;;0.90;0.90;;;21.60;47.00;;;;;;4208562;28;19927;-61
2023/06/03 14:17:00;;;;;;;2.50;1.05;;;21.60;47.10;;;;;;4209783;28;20407;-61